Time,TemperatureF,DewpointF,PressureIn,WindDirection,WindDirectionDegrees,WindSpeedMPH,WindSpeedGustMPH,Humidity,HourlyPrecipIn,Conditions,Clouds,dailyrainin,SoftwareType,DateUTC
2013-03-11 00:00:00,33.8,30.9,30.07,North,0,0.0,-999.0,89,-99.99,,,0.00,Acu-Link.com,2013-03-11 04:00:00,
2013-03-11 00:16:00,33.3,30.7,30.07,WNW,292,2.7,-999.0,90,-99.99,,,0.00,Acu-Link.com,2013-03-11 04:16:00,
2013-03-11 00:31:00,33.1,30.7,30.08,West,270,0.0,-999.0,91,-99.99,,,0.00,Acu-Link.com,2013-03-11 04:31:00,
2013-03-11 00:46:00,32.9,30.8,30.07,West,270,0.0,-999.0,92,-99.99,,,0.00,Acu-Link.com,2013-03-11 04:46:00,
2013-03-11 01:01:00,32.5,30.5,30.07,SSW,202,2.2,-999.0,92,-99.99,,,0.00,Acu-Link.com,2013-03-11 05:01:00,
2013-03-11 01:17:00,32.7,30.9,30.08,WNW,292,1.6,-999.0,93,-99.99,,,0.00,Acu-Link.com,2013-03-11 05:17:00,
2013-03-11 01:32:00,32.7,30.9,30.07,WNW,292,1.1,-999.0,93,-99.99,,,0.00,Acu-Link.com,2013-03-11 05:32:00,
2013-03-11 01:47:00,32.2,30.7,30.08,West,270,0.0,-999.0,94,-99.99,,,0.00,Acu-Link.com,2013-03-11 05:47:00,
2013-03-11 02:02:00,32.4,31.1,30.09,SSW,202,1.1,-999.0,95,-99.99,,,0.00,Acu-Link.com,2013-03-11 06:02:00,
2013-03-11 02:17:00,32.7,30.9,30.08,SSW,202,1.6,-999.0,93,-99.99,,,0.00,Acu-Link.com,2013-03-11 06:17:00,
2013-03-11 02:33:00,32.0,30.7,30.08,SSW,202,0.0,-999.0,95,-99.99,,,0.00,Acu-Link.com,2013-03-11 06:33:00,
2013-03-11 02:48:00,31.6,30.6,30.07,SW,225,0.0,-999.0,96,-99.99,,,0.00,Acu-Link.com,2013-03-11 06:48:00,
2013-03-11 03:03:00,31.3,30.3,30.06,South,180,0.0,-999.0,96,-99.99,,,0.00,Acu-Link.com,2013-03-11 07:03:00,
2013-03-11 03:18:00,30.9,30.2,30.04,SW,225,0.0,-999.0,97,-99.99,,,0.00,Acu-Link.com,2013-03-11 07:18:00,
2013-03-11 03:33:00,30.9,30.7,30.04,SSW,202,1.6,-999.0,99,-99.99,,,0.00,Acu-Link.com,2013-03-11 07:33:00,
2013-03-11 03:49:00,30.7,30.2,30.05,South,180,1.6,-999.0,98,-99.99,,,0.00,Acu-Link.com,2013-03-11 07:49:00,
2013-03-11 04:04:00,31.1,30.9,30.05,SSE,157,0.0,-999.0,99,-99.99,,,0.00,Acu-Link.com,2013-03-11 08:04:00,
2013-03-11 04:19:00,30.6,30.1,30.04,WNW,292,0.0,-999.0,98,-99.99,,,0.00,Acu-Link.com,2013-03-11 08:19:00,
2013-03-11 04:34:00,30.9,30.7,30.03,South,180,1.1,-999.0,99,-99.99,,,0.00,Acu-Link.com,2013-03-11 08:34:00,
2013-03-11 04:49:00,30.6,30.3,30.03,NNW,337,1.1,-999.0,99,-99.99,,,0.00,Acu-Link.com,2013-03-11 08:49:00,
2013-03-11 05:04:00,30.2,30.0,30.02,South,180,1.6,-999.0,99,-99.99,,,0.00,Acu-Link.com,2013-03-11 09:04:00,
2013-03-11 05:20:00,29.8,29.6,30.02,NNW,337,0.0,-999.0,99,-99.99,,,0.00,Acu-Link.com,2013-03-11 09:20:00,
2013-03-11 05:35:00,29.7,29.4,30.02,WNW,292,1.6,-999.0,99,-99.99,,,0.00,Acu-Link.com,2013-03-11 09:35:00,
2013-03-11 05:50:00,29.8,29.6,30.02,WNW,292,0.0,-999.0,99,-99.99,,,0.00,Acu-Link.com,2013-03-11 09:50:00,
2013-03-11 06:05:00,30.4,30.1,30.03,SW,225,1.1,-999.0,99,-99.99,,,0.00,Acu-Link.com,2013-03-11 10:05:00,
2013-03-11 06:21:00,30.2,30.0,30.03,South,180,1.6,-999.0,99,-99.99,,,0.00,Acu-Link.com,2013-03-11 10:21:00,
2013-03-11 06:36:00,30.7,30.5,30.01,SW,225,2.2,-999.0,99,-99.99,,,0.00,Acu-Link.com,2013-03-11 10:36:00,
2013-03-11 06:51:00,30.4,30.1,30.02,SW,225,1.1,-999.0,99,-99.99,,,0.00,Acu-Link.com,2013-03-11 10:51:00,
2013-03-11 07:21:00,30.9,30.7,30.02,South,180,2.7,-999.0,99,-99.99,,,0.00,Acu-Link.com,2013-03-11 11:21:00,
2013-03-11 07:37:00,31.3,31.0,30.02,SSW,202,1.6,-999.0,99,-99.99,,,0.00,Acu-Link.com,2013-03-11 11:37:00,
2013-03-11 07:52:00,32.0,31.5,30.02,WNW,292,1.6,-999.0,98,-99.99,,,0.00,Acu-Link.com,2013-03-11 11:52:00,
2013-03-11 08:07:00,34.3,32.0,30.02,SSE,157,3.1,-999.0,91,-99.99,,,0.00,Acu-Link.com,2013-03-11 12:07:00,
2013-03-11 08:22:00,35.6,32.4,30.02,SSE,157,3.8,-999.0,88,-99.99,,,0.00,Acu-Link.com,2013-03-11 12:22:00,
2013-03-11 08:38:00,37.6,33.2,30.02,SSE,157,3.8,-999.0,84,-99.99,,,0.00,Acu-Link.com,2013-03-11 12:38:00,
2013-03-11 08:53:00,37.2,32.8,30.02,South,180,2.7,-999.0,84,-99.99,,,0.00,Acu-Link.com,2013-03-11 12:53:00,
2013-03-11 09:08:00,38.8,33.2,30.02,East,90,3.1,-999.0,80,-99.99,,,0.00,Acu-Link.com,2013-03-11 13:08:00,
2013-03-11 09:23:00,40.6,33.3,30.02,ESE,112,4.3,-999.0,75,-99.99,,,0.00,Acu-Link.com,2013-03-11 13:23:00,
2013-03-11 09:38:00,40.5,33.5,30.02,NW,315,1.6,-999.0,76,-99.99,,,0.00,Acu-Link.com,2013-03-11 13:38:00,
2013-03-11 09:54:00,43.0,33.9,30.02,WNW,292,1.6,-999.0,70,-99.99,,,0.00,Acu-Link.com,2013-03-11 13:54:00,
2013-03-11 10:09:00,43.3,34.2,30.02,SSE,157,3.8,-999.0,70,-99.99,,,0.00,Acu-Link.com,2013-03-11 14:09:00,
2013-03-11 10:24:00,44.4,34.5,30.02,SE,135,3.1,-999.0,68,-99.99,,,0.00,Acu-Link.com,2013-03-11 14:24:00,
2013-03-11 10:39:00,43.3,34.2,30.02,ESE,112,2.2,-999.0,70,-99.99,,,0.00,Acu-Link.com,2013-03-11 14:39:00,
2013-03-11 10:54:00,43.5,34.0,30.02,South,180,3.1,-999.0,69,-99.99,,,0.00,Acu-Link.com,2013-03-11 14:54:00,
2013-03-11 11:10:00,43.7,34.2,30.03,West,270,2.7,-999.0,69,-99.99,,,0.00,Acu-Link.com,2013-03-11 15:10:00,
2013-03-11 11:25:00,44.6,34.3,30.03,West,270,0.0,-999.0,67,-99.99,,,0.00,Acu-Link.com,2013-03-11 15:25:00,
2013-03-11 11:40:00,45.1,34.5,30.02,South,180,3.8,-999.0,66,-99.99,,,0.00,Acu-Link.com,2013-03-11 15:40:00,
2013-03-11 11:55:00,45.9,35.2,30.01,SE,135,2.2,-999.0,66,-99.99,,,0.00,Acu-Link.com,2013-03-11 15:55:00,
2013-03-11 12:11:00,48.4,35.1,30.02,SSW,202,2.7,-999.0,60,-99.99,,,0.00,Acu-Link.com,2013-03-11 16:11:00,
2013-03-11 12:41:00,48.9,34.8,30.02,East,90,1.1,-999.0,58,-99.99,,,0.00,Acu-Link.com,2013-03-11 16:41:00,
2013-03-11 13:12:00,48.7,34.6,30.00,SW,225,1.6,-999.0,58,-99.99,,,0.00,Acu-Link.com,2013-03-11 17:12:00,
2013-03-11 13:27:00,48.6,34.9,29.99,SE,135,1.1,-999.0,59,-99.99,,,0.00,Acu-Link.com,2013-03-11 17:27:00,
2013-03-11 13:42:00,48.2,33.2,29.98,SE,135,1.6,-999.0,56,-99.99,,,0.00,Acu-Link.com,2013-03-11 17:42:00,
2013-03-11 13:57:00,48.9,34.4,29.98,South,180,3.8,-999.0,57,-99.99,,,0.00,Acu-Link.com,2013-03-11 17:57:00,
2013-03-11 14:12:00,49.5,33.5,29.97,West,270,2.7,-999.0,54,-99.99,,,0.00,Acu-Link.com,2013-03-11 18:12:00,
2013-03-11 14:28:00,50.0,34.5,29.98,SSE,157,3.8,-999.0,55,-99.99,,,0.00,Acu-Link.com,2013-03-11 18:28:00,
2013-03-11 14:43:00,49.8,35.6,29.97,SE,135,7.4,-999.0,58,-99.99,,,0.00,Acu-Link.com,2013-03-11 18:43:00,
2013-03-11 14:58:00,50.7,35.6,29.96,SE,135,4.7,-999.0,56,-99.99,,,0.00,Acu-Link.com,2013-03-11 18:58:00,
2013-03-11 15:13:00,50.4,35.3,29.96,SSE,157,2.2,-999.0,56,-99.99,,,0.00,Acu-Link.com,2013-03-11 19:13:00,
2013-03-11 15:28:00,50.4,35.7,29.96,ESE,112,4.3,-999.0,57,-99.99,,,0.00,Acu-Link.com,2013-03-11 19:28:00,
2013-03-11 15:44:00,50.4,35.7,29.96,SE,135,2.7,-999.0,57,-99.99,,,0.00,Acu-Link.com,2013-03-11 19:44:00,
2013-03-11 15:59:00,49.8,36.1,29.95,WNW,292,2.7,-999.0,59,-99.99,,,0.00,Acu-Link.com,2013-03-11 19:59:00,
2013-03-11 16:14:00,50.5,36.3,29.95,SW,225,3.1,-999.0,58,-99.99,,,0.00,Acu-Link.com,2013-03-11 20:14:00,
2013-03-11 16:29:00,50.4,36.1,29.95,SE,135,2.2,-999.0,58,-99.99,,,0.00,Acu-Link.com,2013-03-11 20:29:00,
2013-03-11 16:45:00,50.5,35.9,29.95,SW,225,3.8,-999.0,57,-99.99,,,0.00,Acu-Link.com,2013-03-11 20:45:00,
2013-03-11 17:00:00,50.0,35.8,29.94,WSW,247,1.1,-999.0,58,-99.99,,,0.00,Acu-Link.com,2013-03-11 21:00:00,
2013-03-11 17:15:00,49.6,35.5,29.93,SE,135,3.1,-999.0,58,-99.99,,,0.00,Acu-Link.com,2013-03-11 21:15:00,
2013-03-11 17:30:00,49.5,35.7,29.94,South,180,2.7,-999.0,59,-99.99,,,0.00,Acu-Link.com,2013-03-11 21:30:00,
2013-03-11 17:45:00,48.9,36.5,29.93,East,90,0.0,-999.0,62,-99.99,,,0.00,Acu-Link.com,2013-03-11 21:45:00,
2013-03-11 18:01:00,48.2,36.2,29.93,NNW,337,1.6,-999.0,63,-99.99,,,0.00,Acu-Link.com,2013-03-11 22:01:00,
2013-03-11 18:16:00,47.5,36.3,29.93,South,180,1.6,-999.0,65,-99.99,,,0.00,Acu-Link.com,2013-03-11 22:16:00,
2013-03-11 18:31:00,46.8,36.0,29.93,ESE,112,3.8,-999.0,66,-99.99,,,0.00,Acu-Link.com,2013-03-11 22:31:00,
2013-03-11 18:47:00,46.2,35.9,29.93,SSE,157,1.1,-999.0,67,-99.99,,,0.00,Acu-Link.com,2013-03-11 22:47:00,
2013-03-11 19:02:00,45.9,35.9,29.93,SSE,157,1.6,-999.0,68,-99.99,,,0.00,Acu-Link.com,2013-03-11 23:02:00,
2013-03-11 19:17:00,45.3,35.8,29.93,East,90,0.0,-999.0,69,-99.99,,,0.00,Acu-Link.com,2013-03-11 23:17:00,
2013-03-11 19:32:00,45.0,36.1,29.94,WNW,292,0.0,-999.0,71,-99.99,,,0.00,Acu-Link.com,2013-03-11 23:32:00,
2013-03-11 19:48:00,44.6,36.5,29.93,SE,135,3.8,-999.0,73,-99.99,,,0.00,Acu-Link.com,2013-03-11 23:48:00,
2013-03-11 20:03:00,43.9,37.5,29.93,WNW,292,2.7,-999.0,78,-99.99,,,0.00,Acu-Link.com,2013-03-12 00:03:00,
2013-03-11 20:19:00,43.5,38.4,29.93,WSW,247,3.8,-999.0,82,-99.99,,,0.00,Acu-Link.com,2013-03-12 00:19:00,
2013-03-11 20:34:00,43.2,38.7,29.93,South,180,2.2,-999.0,84,-99.99,,,0.00,Acu-Link.com,2013-03-12 00:34:00,
2013-03-11 20:49:00,42.6,38.7,29.94,South,180,3.1,-999.0,86,-99.99,,,0.00,Acu-Link.com,2013-03-12 00:49:00,
2013-03-11 21:04:00,42.6,39.3,29.94,South,180,4.7,-999.0,88,-99.99,,,0.00,Acu-Link.com,2013-03-12 01:04:00,
2013-03-11 21:20:00,42.8,39.5,29.94,East,90,0.0,-999.0,88,-99.99,,,0.00,Acu-Link.com,2013-03-12 01:20:00,
2013-03-11 21:35:00,42.1,39.1,29.93,North,0,0.0,-999.0,89,-99.99,,,0.00,Acu-Link.com,2013-03-12 01:35:00,
2013-03-11 21:50:00,42.1,39.4,29.93,South,180,2.7,-999.0,90,-99.99,,,0.00,Acu-Link.com,2013-03-12 01:50:00,
2013-03-11 22:05:00,42.1,39.6,29.93,SE,135,0.0,-999.0,91,-99.99,,,0.00,Acu-Link.com,2013-03-12 02:05:00,
2013-03-11 22:20:00,42.1,39.6,29.93,WSW,247,0.0,-999.0,91,-99.99,,,0.00,Acu-Link.com,2013-03-12 02:20:00,
2013-03-11 22:36:00,42.1,39.9,29.92,South,180,3.1,-999.0,92,-99.99,,,0.00,Acu-Link.com,2013-03-12 02:36:00,
2013-03-11 23:06:00,41.7,40.1,29.92,ESE,112,2.2,-999.0,94,-99.99,,,0.00,Acu-Link.com,2013-03-12 03:06:00,
2013-03-11 23:21:00,41.2,39.9,29.92,SSE,157,0.0,-999.0,95,-99.99,,,0.00,Acu-Link.com,2013-03-12 03:21:00,
2013-03-11 23:36:00,40.6,39.9,29.92,South,180,1.1,-999.0,97,-99.99,,,0.00,Acu-Link.com,2013-03-12 03:36:00,
2013-03-11 23:52:00,39.9,39.4,29.92,North,0,2.2,-999.0,98,-99.99,,,0.00,Acu-Link.com,2013-03-12 03:52:00,